Time;durP1;ratioP1;P1;durP2;ratioP2;P2;SDS_P1;SDS_P2;PMS_P1;PMS_P2;Temp;Humidity;BMP_temperature;BMP_pressure;BME280_temperature;BME280_humidity;BME280_pressure;Samples;Min_cycle;Max_cycle;Signal;HPM_P1;HPM_P2
2022/07/29 00:00:06;;;;;;;6.90;4.13;;;17.70;99.90;;;;;;5075449;28;20181;-76
2022/07/29 00:02:31;;;;;;;7.40;4.83;;;17.70;99.90;;;;;;5074983;28;20185;-76
2022/07/29 00:04:57;;;;;;;5.90;4.53;;;17.60;99.90;;;;;;5076949;28;20427;-76
2022/07/29 00:07:23;;;;;;;6.80;4.13;;;17.60;99.90;;;;;;5075463;28;20221;-77
2022/07/29 00:09:49;;;;;;;7.60;4.70;;;17.60;99.90;;;;;;5075303;28;20793;-76
2022/07/29 00:12:15;;;;;;;8.03;4.07;;;17.60;99.90;;;;;;5076338;28;20197;-76
2022/07/29 00:14:40;;;;;;;9.23;4.60;;;17.50;99.90;;;;;;5086860;28;20286;-76
2022/07/29 00:17:06;;;;;;;7.30;4.30;;;17.50;99.90;;;;;;5074726;28;20185;-77
2022/07/29 00:19:32;;;;;;;7.57;4.47;;;17.50;99.90;;;;;;5088557;28;20184;-76
2022/07/29 00:21:57;;;;;;;10.00;4.67;;;17.50;99.90;;;;;;5077808;28;20272;-76
2022/07/29 00:24:23;;;;;;;7.83;3.90;;;17.40;99.90;;;;;;5074770;28;20187;-76
2022/07/29 00:26:48;;;;;;;5.83;3.33;;;17.40;99.90;;;;;;5074270;28;20181;-76
2022/07/29 00:29:14;;;;;;;6.40;3.60;;;17.40;99.90;;;;;;5074642;28;20181;-76
2022/07/29 00:31:40;;;;;;;8.40;4.40;;;17.40;99.90;;;;;;5074234;28;20207;-76
2022/07/29 00:35:43;;;;;;;7.80;4.50;;;17.30;99.90;;;;;;5070678;28;20189;-76
2022/07/29 00:36:51;;;;;;;6.33;3.83;;;17.30;99.90;;;;;;5074128;28;20181;-76
2022/07/29 00:39:17;;;;;;;4.83;3.27;;;17.30;99.90;;;;;;5074492;28;20456;-76
2022/07/29 00:41:42;;;;;;;6.03;3.20;;;17.30;99.90;;;;;;5078622;28;20177;-76
2022/07/29 00:44:08;;;;;;;7.77;4.60;;;17.30;99.90;;;;;;5074427;28;20169;-76
2022/07/29 00:46:33;;;;;;;5.10;3.47;;;17.30;99.90;;;;;;5074125;28;20183;-76
2022/07/29 00:48:59;;;;;;;7.17;4.20;;;17.40;99.90;;;;;;5073940;28;20181;-76
2022/07/29 00:51:26;;;;;;;5.27;2.80;;;17.30;99.90;;;;;;5073160;28;20185;-76
2022/07/29 00:53:53;;;;;;;9.23;3.77;;;17.30;99.90;;;;;;5087676;28;20181;-76
2022/07/29 00:56:19;;;;;;;9.80;3.90;;;17.30;99.90;;;;;;5081865;28;20927;-76
2022/07/29 00:58:46;;;;;;;6.30;4.20;;;17.30;99.90;;;;;;5073750;28;20484;-76
2022/07/29 01:01:12;;;;;;;5.83;3.40;;;17.30;99.90;;;;;;5074279;28;20435;-76
2022/07/29 01:03:38;;;;;;;8.80;4.43;;;17.30;99.90;;;;;;5075391;28;20507;-77
2022/07/29 01:06:04;;;;;;;6.67;4.03;;;17.20;99.90;;;;;;5076494;28;20173;-77
2022/07/29 01:08:32;;;;;;;5.57;3.23;;;17.20;99.90;;;;;;5088610;28;20181;-77
2022/07/29 01:11:01;;;;;;;5.30;3.30;;;17.20;99.90;;;;;;5088518;28;20427;-76
2022/07/29 01:13:27;;;;;;;7.77;4.87;;;17.20;99.90;;;;;;5087293;28;20450;-77
2022/07/29 01:16:15;;;;;;;6.20;3.77;;;17.20;99.90;;;;;;5082792;28;20566;-76
2022/07/29 01:18:49;;;;;;;5.30;3.60;;;17.20;99.90;;;;;;5066861;28;20435;-76
2022/07/29 01:21:45;;;;;;;9.63;3.60;;;17.20;99.90;;;;;;5073645;28;20915;-76
2022/07/29 01:24:25;;;;;;;5.40;3.33;;;17.20;99.90;;;;;;5074114;28;20472;-76
2022/07/29 01:27:22;;;;;;;5.50;3.50;;;17.20;99.90;;;;;;5067688;28;20431;-76
2022/07/29 01:29:59;;;;;;;8.20;4.17;;;17.10;99.90;;;;;;5085081;28;20450;-76
2022/07/29 01:32:31;;;;;;;7.80;4.23;;;17.20;99.90;;;;;;5072812;28;20441;-76
2022/07/29 01:35:08;;;;;;;8.17;4.37;;;17.10;99.90;;;;;;5073030;28;20935;-76
2022/07/29 01:37:50;;;;;;;8.70;4.40;;;17.10;99.90;;;;;;5073210;28;20438;-76
2022/07/29 01:40:33;;;;;;;6.13;3.90;;;17.10;99.90;;;;;;5073399;28;20462;-76
2022/07/29 01:43:08;;;;;;;7.20;4.33;;;17.10;99.90;;;;;;5059602;28;20502;-76
2022/07/29 01:45:41;;;;;;;10.10;4.67;;;17.00;99.90;;;;;;5072964;28;20430;-76
2022/07/29 01:48:15;;;;;;;10.57;6.10;;;17.00;99.90;;;;;;5060383;28;20420;-76
2022/07/29 01:50:47;;;;;;;8.47;5.13;;;17.00;99.90;;;;;;5073051;28;20451;-76
2022/07/29 01:53:18;;;;;;;5.70;3.57;;;17.00;99.90;;;;;;5073188;28;20411;-76
2022/07/29 01:55:45;;;;;;;6.07;3.70;;;17.00;99.90;;;;;;5072705;28;20455;-76
2022/07/29 01:58:14;;;;;;;6.43;3.53;;;16.90;99.90;;;;;;5078035;28;20421;-77
2022/07/29 02:00:44;;;;;;;9.60;3.70;;;16.90;99.90;;;;;;5072108;28;20441;-76
2022/07/29 02:03:12;;;;;;;5.60;3.73;;;16.90;99.90;;;;;;5082271;28;20494;-76
2022/07/29 02:05:42;;;;;;;11.27;4.13;;;16.90;99.90;;;;;;5085957;28;20427;-76
2022/07/29 02:08:09;;;;;;;5.57;3.53;;;17.00;99.90;;;;;;5071958;28;20439;-76
2022/07/29 02:10:36;;;;;;;5.90;3.33;;;16.90;99.90;;;;;;5072701;28;20816;-76
2022/07/29 02:13:03;;;;;;;4.33;2.90;;;17.00;99.90;;;;;;5077459;28;20579;-76
2022/07/29 02:15:31;;;;;;;5.33;2.73;;;16.90;99.90;;;;;;5080620;28;20478;-76
2022/07/29 02:18:14;;;;;;;4.83;3.10;;;16.90;99.90;;;;;;5073125;28;20416;-76
2022/07/29 02:20:44;;;;;;;5.90;2.90;;;16.90;99.90;;;;;;5072419;28;21361;-76
2022/07/29 02:23:11;;;;;;;5.07;2.70;;;16.90;99.90;;;;;;5080869;28;20916;-76
2022/07/29 02:25:37;;;;;;;4.80;2.20;;;16.90;99.90;;;;;;5077351;28;20415;-76
2022/07/29 02:28:05;;;;;;;4.73;2.90;;;17.00;99.90;;;;;;5080941;28;20430;-76
2022/07/29 02:30:31;;;;;;;8.83;3.60;;;17.00;99.90;;;;;;5078067;28;20427;-77
2022/07/29 02:32:58;;;;;;;7.40;3.60;;;16.90;99.90;;;;;;5071716;28;20530;-76
2022/07/29 02:35:25;;;;;;;4.60;2.87;;;16.90;99.90;;;;;;5069392;28;20452;-76
2022/07/29 02:40:38;;;;;;;5.17;3.17;;;16.90;99.90;;;;;;5075876;28;20430;-76
2022/07/29 02:43:06;;;;;;;4.83;2.90;;;16.80;99.90;;;;;;5071993;28;20906;-76
2022/07/29 02:45:33;;;;;;;6.20;2.27;;;16.80;99.90;;;;;;5071019;28;20423;-76
2022/07/29 02:48:02;;;;;;;7.37;2.97;;;16.80;99.90;;;;;;5072370;28;20436;-76
2022/07/29 02:50:36;;;;;;;7.33;3.40;;;16.80;99.90;;;;;;5079343;28;20431;-76
2022/07/29 02:53:18;;;;;;;5.97;3.67;;;16.70;99.90;;;;;;5077411;28;20891;-76
2022/07/29 02:55:48;;;;;;;7.60;3.83;;;16.70;99.90;;;;;;5071877;28;20529;-76
2022/07/29 02:58:33;;;;;;;5.00;3.30;;;16.70;99.90;;;;;;5071693;28;20423;-76
2022/07/29 03:01:04;;;;;;;6.20;3.57;;;16.70;99.90;;;;;;5082106;28;20434;-76
2022/07/29 03:03:35;;;;;;;7.30;3.50;;;16.70;99.90;;;;;;5080404;28;20426;-76
2022/07/29 03:06:02;;;;;;;6.00;4.30;;;16.70;99.90;;;;;;5087012;28;20778;-76
2022/07/29 03:08:29;;;;;;;9.40;4.37;;;16.70;99.90;;;;;;5072224;28;20573;-76
2022/07/29 03:10:55;;;;;;;6.63;4.27;;;16.70;99.90;;;;;;5071653;28;20931;-76
2022/07/29 03:13:22;;;;;;;10.00;5.53;;;16.70;99.90;;;;;;5071934;28;20536;-76
2022/07/29 03:15:48;;;;;;;8.30;3.93;;;16.70;99.90;;;;;;5085134;28;20459;-76
2022/07/29 03:18:14;;;;;;;7.83;4.70;;;16.70;99.90;;;;;;5080203;28;20924;-76
2022/07/29 03:20:41;;;;;;;7.90;4.30;;;16.70;99.90;;;;;;5075149;28;20422;-76
2022/07/29 03:23:08;;;;;;;7.27;4.00;;;16.70;99.90;;;;;;5075128;28;20430;-77
2022/07/29 03:25:34;;;;;;;5.90;4.00;;;16.70;99.90;;;;;;5089512;28;20521;-76
2022/07/29 03:27:59;;;;;;;8.73;4.10;;;16.70;99.90;;;;;;5075354;28;20510;-76
2022/07/29 03:30:25;;;;;;;13.67;4.90;;;16.70;99.90;;;;;;5075247;28;20189;-76
2022/07/29 03:32:51;;;;;;;7.87;4.03;;;16.60;99.90;;;;;;5074697;28;20540;-76
2022/07/29 03:35:17;;;;;;;11.77;5.47;;;16.60;99.90;;;;;;5075380;28;20374;-77
2022/07/29 03:37:43;;;;;;;7.23;3.40;;;16.50;99.90;;;;;;5075989;28;20960;-76
2022/07/29 03:40:13;;;;;;;5.90;3.53;;;16.50;99.90;;;;;;5079442;28;20191;-76
2022/07/29 03:42:41;;;;;;;14.03;3.87;;;16.50;99.90;;;;;;5083970;28;20935;-76
2022/07/29 03:45:12;;;;;;;7.93;4.17;;;16.40;99.90;;;;;;5079967;28;20427;-76
2022/07/29 03:47:44;;;;;;;4.20;3.00;;;16.40;99.90;;;;;;5075379;28;20495;-76
2022/07/29 03:50:14;;;;;;;4.70;3.10;;;16.40;99.90;;;;;;5075208;28;20442;-76
2022/07/29 03:52:40;;;;;;;6.80;3.20;;;16.40;99.90;;;;;;5074985;28;20437;-76
2022/07/29 03:55:07;;;;;;;4.63;2.87;;;16.40;99.90;;;;;;5082561;28;20888;-76
2022/07/29 03:57:34;;;;;;;5.60;2.30;;;16.30;99.90;;;;;;5075161;28;20508;-76
2022/07/29 04:00:02;;;;;;;7.00;3.50;;;16.30;99.90;;;;;;5081572;28;20894;-76
2022/07/29 04:02:28;;;;;;;5.27;2.77;;;16.30;99.90;;;;;;5068076;28;21001;-76
2022/07/29 04:04:54;;;;;;;5.80;2.60;;;16.30;99.90;;;;;;5075167;28;20431;-76
2022/07/29 04:07:20;;;;;;;4.10;2.53;;;16.30;99.90;;;;;;5061896;28;20193;-76
2022/07/29 04:09:46;;;;;;;3.70;2.30;;;16.30;99.90;;;;;;5075091;28;20473;-76
2022/07/29 04:12:11;;;;;;;4.47;2.60;;;16.30;99.90;;;;;;5074435;28;20288;-76
2022/07/29 04:14:37;;;;;;;4.50;2.60;;;16.20;99.90;;;;;;5074906;28;20216;-76
2022/07/29 04:17:03;;;;;;;7.00;2.87;;;16.20;99.90;;;;;;5074189;28;20192;-76
2022/07/29 04:19:29;;;;;;;5.47;3.07;;;16.30;99.90;;;;;;5079558;28;20189;-76
2022/07/29 04:21:55;;;;;;;5.70;3.23;;;16.20;99.90;;;;;;5074458;28;20467;-76
2022/07/29 04:24:21;;;;;;;8.00;2.80;;;16.30;99.90;;;;;;5075062;28;20676;-76
2022/07/29 04:26:47;;;;;;;4.00;2.30;;;16.30;99.90;;;;;;5075095;28;20423;-75
2022/07/29 04:29:14;;;;;;;6.20;3.00;;;16.20;99.90;;;;;;5072403;28;20181;-76
2022/07/29 04:31:40;;;;;;;4.17;3.00;;;16.20;99.90;;;;;;5081618;28;20415;-76
2022/07/29 04:34:06;;;;;;;6.90;3.30;;;16.30;99.90;;;;;;5075597;28;20533;-76
2022/07/29 04:36:32;;;;;;;4.33;2.47;;;16.20;99.90;;;;;;5073374;28;20419;-75
2022/07/29 04:38:58;;;;;;;6.07;3.13;;;16.30;99.90;;;;;;5079924;28;20415;-75
2022/07/29 04:41:23;;;;;;;7.83;2.83;;;16.30;99.90;;;;;;5074158;28;20637;-76
2022/07/29 04:43:49;;;;;;;3.73;2.80;;;16.30;99.90;;;;;;5083890;28;20188;-76
2022/07/29 04:46:15;;;;;;;3.80;2.40;;;16.30;99.90;;;;;;5076938;28;20193;-76
2022/07/29 04:48:40;;;;;;;9.53;3.20;;;16.40;99.90;;;;;;5074438;28;20185;-76
2022/07/29 04:51:06;;;;;;;6.60;2.90;;;16.40;99.90;;;;;;5074029;28;20216;-75
2022/07/29 04:53:32;;;;;;;4.77;2.83;;;16.50;99.90;;;;;;5084011;28;20215;-75
2022/07/29 04:55:58;;;;;;;5.63;3.27;;;16.50;99.90;;;;;;5078121;28;20991;-76
2022/07/29 04:58:24;;;;;;;4.20;2.80;;;16.60;99.90;;;;;;5073845;28;20477;-76
2022/07/29 05:00:50;;;;;;;10.93;3.20;;;16.60;99.90;;;;;;5087782;28;20185;-76
2022/07/29 05:03:17;;;;;;;7.30;3.70;;;16.70;99.90;;;;;;5073683;28;20451;-76
2022/07/29 05:05:42;;;;;;;5.33;2.73;;;16.70;99.90;;;;;;5074039;28;20431;-76
2022/07/29 05:08:08;;;;;;;11.60;3.90;;;16.80;99.90;;;;;;5074369;28;20419;-75
2022/07/29 05:10:37;;;;;;;11.73;3.80;;;16.80;99.90;;;;;;5074318;28;20188;-75
2022/07/29 05:13:05;;;;;;;7.53;3.47;;;16.90;99.90;;;;;;5073698;28;20294;-76
2022/07/29 05:15:31;;;;;;;10.00;4.43;;;17.00;99.90;;;;;;5073492;28;20466;-76
2022/07/29 05:17:56;;;;;;;4.00;2.73;;;17.00;99.90;;;;;;5074079;28;20427;-76
2022/07/29 05:20:26;;;;;;;5.13;3.43;;;17.10;99.90;;;;;;5073855;28;20428;-75
2022/07/29 05:22:52;;;;;;;4.27;2.80;;;17.10;99.90;;;;;;5076676;28;20170;-76
2022/07/29 05:25:18;;;;;;;5.30;3.27;;;17.20;99.90;;;;;;5073794;28;20778;-75
2022/07/29 05:27:43;;;;;;;8.17;3.53;;;17.40;99.90;;;;;;5073054;28;20648;-75
2022/07/29 05:30:09;;;;;;;7.73;3.40;;;17.40;99.90;;;;;;5079799;28;20192;-75
2022/07/29 05:32:35;;;;;;;10.20;3.37;;;17.50;99.90;;;;;;5102249;22;20233;-75
2022/07/29 05:35:00;;;;;;;4.90;3.30;;;17.50;99.90;;;;;;5107121;28;20458;-76
2022/07/29 05:37:26;;;;;;;6.00;2.90;;;17.60;99.90;;;;;;5093785;28;20190;-76
2022/07/29 05:39:52;;;;;;;4.57;2.63;;;17.70;99.90;;;;;;5093195;28;20181;-76
2022/07/29 05:42:17;;;;;;;5.30;2.97;;;17.70;99.90;;;;;;5092695;28;20192;-76
2022/07/29 05:44:43;;;;;;;3.93;2.67;;;17.70;99.90;;;;;;5103319;28;20190;-76
2022/07/29 05:47:09;;;;;;;5.67;2.80;;;17.80;99.90;;;;;;5093045;28;20225;-76
2022/07/29 05:49:35;;;;;;;5.83;3.43;;;17.80;99.90;;;;;;5092799;28;20534;-76
2022/07/29 05:52:00;;;;;;;7.40;3.00;;;17.90;99.90;;;;;;5092499;28;20550;-76
2022/07/29 05:54:26;;;;;;;6.20;3.30;;;17.90;99.90;;;;;;5092940;28;20188;-75
2022/07/29 05:56:51;;;;;;;5.47;3.03;;;18.00;99.90;;;;;;5093213;28;20195;-76
2022/07/29 05:59:17;;;;;;;5.77;3.20;;;18.00;99.90;;;;;;5095049;28;20193;-76
2022/07/29 06:01:43;;;;;;;3.70;2.33;;;18.00;99.90;;;;;;5092947;28;20185;-76
2022/07/29 06:04:08;;;;;;;4.47;2.70;;;18.10;99.90;;;;;;5107091;28;20187;-76
2022/07/29 06:06:34;;;;;;;4.63;2.73;;;18.10;99.90;;;;;;5093427;28;20629;-76
2022/07/29 06:09:01;;;;;;;4.93;3.10;;;18.20;99.90;;;;;;5090900;28;20203;-76
2022/07/29 06:11:27;;;;;;;3.53;2.57;;;18.20;99.90;;;;;;5090571;28;20180;-76
2022/07/29 06:13:53;;;;;;;5.17;2.87;;;18.30;99.90;;;;;;5100922;28;20414;-75
2022/07/29 06:16:19;;;;;;;4.90;3.00;;;18.40;99.90;;;;;;5092894;28;20241;-76
2022/07/29 06:18:44;;;;;;;5.03;2.70;;;18.50;99.90;;;;;;5099577;28;20318;-76
2022/07/29 06:21:11;;;;;;;5.27;2.90;;;18.60;99.90;;;;;;5090873;28;20958;-76
2022/07/29 06:23:38;;;;;;;5.00;3.37;;;18.70;99.90;;;;;;5092725;28;20667;-76
2022/07/29 06:26:04;;;;;;;5.73;3.10;;;18.80;99.90;;;;;;5064483;28;20438;-76
2022/07/29 06:28:29;;;;;;;7.80;3.27;;;18.90;99.90;;;;;;5086074;28;20933;-75
2022/07/29 06:30:55;;;;;;;4.53;2.80;;;19.10;99.90;;;;;;5090011;28;20536;-75
2022/07/29 06:33:20;;;;;;;6.60;3.03;;;19.20;99.90;;;;;;5095235;28;20203;-76
2022/07/29 06:35:47;;;;;;;5.20;2.63;;;19.40;99.90;;;;;;5088642;28;20192;-76
2022/07/29 06:38:13;;;;;;;5.30;2.77;;;19.50;99.90;;;;;;5078460;28;20259;-76
2022/07/29 06:41:05;;;;;;;3.80;2.20;;;19.60;99.90;;;;;;5082121;28;20782;-76
2022/07/29 06:43:37;;;;;;;12.03;2.80;;;19.70;99.90;;;;;;5074521;28;20501;-76
2022/07/29 06:46:05;;;;;;;5.00;3.00;;;19.80;99.90;;;;;;5089697;28;20414;-76
2022/07/29 06:48:32;;;;;;;7.63;4.10;;;19.90;99.90;;;;;;5084042;28;20962;-76
2022/07/29 06:50:58;;;;;;;12.00;2.80;;;20.00;99.90;;;;;;5088021;28;20492;-76
2022/07/29 06:53:24;;;;;;;4.57;2.70;;;20.00;99.90;;;;;;5084979;28;20919;-76
2022/07/29 06:55:50;;;;;;;5.20;3.03;;;20.00;99.90;;;;;;5088778;28;20465;-76
2022/07/29 06:58:17;;;;;;;4.87;2.70;;;20.00;99.90;;;;;;5090979;28;20180;-75
2022/07/29 07:00:44;;;;;;;3.67;2.40;;;20.00;99.90;;;;;;5091382;28;20172;-76
2022/07/29 07:03:11;;;;;;;7.50;2.50;;;20.10;99.90;;;;;;5082130;28;20422;-76
2022/07/29 07:05:36;;;;;;;5.73;3.17;;;20.20;99.90;;;;;;5084212;28;20418;-76
2022/07/29 07:08:02;;;;;;;5.40;2.93;;;20.40;99.90;;;;;;5082959;28;20472;-76
2022/07/29 07:10:29;;;;;;;5.70;2.90;;;20.50;99.90;;;;;;5101032;28;20183;-76
2022/07/29 07:12:54;;;;;;;4.77;2.77;;;20.70;99.90;;;;;;5087836;28;20448;-76
2022/07/29 07:15:23;;;;;;;5.37;3.03;;;20.90;99.90;;;;;;5085933;28;21080;-76
2022/07/29 07:17:49;;;;;;;5.03;2.83;;;21.00;99.90;;;;;;5088876;28;20208;-76
2022/07/29 07:20:16;;;;;;;5.70;2.87;;;21.10;99.90;;;;;;5087399;28;20437;-76
2022/07/29 07:22:41;;;;;;;4.93;3.00;;;21.10;99.90;;;;;;5085807;28;20456;-76
2022/07/29 07:25:08;;;;;;;5.57;3.77;;;21.00;99.90;;;;;;5076528;28;20823;-76
2022/07/29 07:27:34;;;;;;;20.97;3.73;;;21.00;99.90;;;;;;5099492;28;20214;-76
2022/07/29 07:29:59;;;;;;;4.20;2.60;;;21.30;99.90;;;;;;5101949;28;21104;-76
2022/07/29 07:32:25;;;;;;;5.07;2.77;;;21.70;99.90;;;;;;5099615;28;20663;-76
2022/07/29 07:34:51;;;;;;;4.00;2.60;;;21.90;99.90;;;;;;5095222;28;20558;-77
2022/07/29 07:37:19;;;;;;;5.10;2.87;;;22.10;99.90;;;;;;5095421;28;20187;-77
2022/07/29 07:39:44;;;;;;;9.60;3.07;;;22.20;99.90;;;;;;5095197;28;20233;-77
2022/07/29 07:42:12;;;;;;;5.90;2.90;;;22.20;99.90;;;;;;5107240;28;20417;-76
2022/07/29 07:44:38;;;;;;;5.90;3.20;;;22.40;99.90;;;;;;5102884;28;20180;-76
2022/07/29 07:47:04;;;;;;;4.47;2.70;;;22.50;99.90;;;;;;5097241;28;20517;-77
2022/07/29 07:49:30;;;;;;;11.13;2.67;;;22.80;99.90;;;;;;5093909;28;20509;-77
2022/07/29 07:51:56;;;;;;;4.63;2.60;;;23.60;99.90;;;;;;5090027;28;20184;-76
2022/07/29 07:54:21;;;;;;;7.73;3.63;;;24.20;99.90;;;;;;5097345;28;20628;-77
2022/07/29 07:56:49;;;;;;;3.40;2.27;;;25.00;99.90;;;;;;5074871;28;20196;-77
2022/07/29 07:59:15;;;;;;;3.60;2.30;;;25.70;99.90;;;;;;5096592;28;20207;-77
2022/07/29 08:01:41;;;;;;;4.65;2.90;;;26.40;99.40;;;;;;5091621;28;20181;-77
2022/07/29 08:04:07;;;;;;;4.85;2.97;;;26.70;98.10;;;;;;5093929;28;20194;-77
2022/07/29 08:06:34;;;;;;;4.65;2.47;;;27.10;96.70;;;;;;5096981;28;20187;-77
2022/07/29 08:09:01;;;;;;;7.35;2.80;;;27.30;94.40;;;;;;5095689;28;20195;-77
2022/07/29 08:11:27;;;;;;;5.63;2.90;;;27.50;94.00;;;;;;5094801;28;20188;-78
2022/07/29 08:13:53;;;;;;;7.32;3.08;;;28.10;93.10;;;;;;5094504;28;20206;-77
2022/07/29 08:16:18;;;;;;;4.05;2.20;;;27.60;92.70;;;;;;5094156;28;20200;-77
2022/07/29 08:18:47;;;;;;;4.75;2.40;;;27.70;91.30;;;;;;5094852;28;20183;-77
2022/07/29 08:21:17;;;;;;;4.82;2.65;;;27.40;92.50;;;;;;5092302;28;20276;-77
2022/07/29 08:23:50;;;;;;;5.15;3.17;;;27.20;93.60;;;;;;5094089;28;20184;-77
2022/07/29 08:26:16;;;;;;;4.18;2.42;;;27.20;92.90;;;;;;5092641;28;20192;-77
2022/07/29 08:28:49;;;;;;;4.95;2.97;;;27.40;92.70;;;;;;5095133;28;20281;-77
2022/07/29 08:31:15;;;;;;;7.65;2.97;;;27.60;92.50;;;;;;5093118;28;20187;-76
2022/07/29 08:33:42;;;;;;;6.93;2.30;;;27.50;92.20;;;;;;5107025;28;20235;-77
2022/07/29 08:36:07;;;;;;;4.55;2.70;;;27.80;91.30;;;;;;5094383;28;20272;-77
2022/07/29 08:38:33;;;;;;;5.75;2.38;;;28.20;91.00;;;;;;5097561;28;20627;-77
2022/07/29 08:41:01;;;;;;;4.28;2.33;;;28.50;91.50;;;;;;5098851;28;20225;-77
2022/07/29 08:43:28;;;;;;;3.58;2.05;;;28.60;90.10;;;;;;5094666;28;20188;-78
2022/07/29 08:45:54;;;;;;;4.22;2.28;;;28.80;86.10;;;;;;5093862;28;20627;-77
2022/07/29 08:48:22;;;;;;;3.40;2.28;;;29.20;82.10;;;;;;5094625;28;20192;-77
2022/07/29 08:50:55;;;;;;;8.35;3.38;;;29.70;81.70;;;;;;5093037;28;20187;-78
2022/07/29 08:53:23;;;;;;;6.72;3.20;;;29.50;81.40;;;;;;5092227;28;20188;-77
2022/07/29 08:55:50;;;;;;;4.22;2.25;;;29.40;81.90;;;;;;5093595;28;20196;-78
2022/07/29 08:58:17;;;;;;;10.48;3.13;;;29.70;82.20;;;;;;5093698;28;20191;-77
2022/07/29 09:00:50;;;;;;;4.22;2.28;;;30.40;80.70;;;;;;5093897;28;20179;-78
2022/07/29 09:03:19;;;;;;;6.85;2.72;;;30.40;77.20;;;;;;5095071;28;20172;-78
2022/07/29 09:05:46;;;;;;;8.52;3.53;;;29.90;75.90;;;;;;5093151;28;20188;-78
2022/07/29 09:08:13;;;;;;;6.40;2.75;;;29.90;72.80;;;;;;5093847;28;20262;-78
2022/07/29 09:10:39;;;;;;;4.80;2.70;;;29.60;76.80;;;;;;5096529;28;20254;-79
2022/07/29 09:13:05;;;;;;;4.53;2.40;;;29.70;75.60;;;;;;5102977;28;20267;-78
2022/07/29 09:15:31;;;;;;;5.75;2.70;;;29.70;74.70;;;;;;5092784;28;20212;-78
2022/07/29 09:17:58;;;;;;;4.65;2.80;;;29.80;76.80;;;;;;5077625;28;20180;-78
2022/07/29 09:20:25;;;;;;;5.70;3.45;;;29.60;77.70;;;;;;5092780;28;20524;-79
2022/07/29 09:22:53;;;;;;;5.32;2.40;;;29.60;76.50;;;;;;5092190;28;20217;-79
2022/07/29 09:25:37;;;;;;;4.47;2.63;;;29.70;78.20;;;;;;5092767;28;20184;-79
2022/07/29 09:28:23;;;;;;;4.68;2.60;;;29.80;78.40;;;;;;5097659;28;20525;-79
2022/07/29 09:30:58;;;;;;;5.70;2.65;;;29.30;79.90;;;;;;5092471;28;20192;-79
2022/07/29 09:33:30;;;;;;;4.65;2.78;;;29.20;80.00;;;;;;5087245;28;20277;-79
2022/07/29 09:36:07;;;;;;;7.90;3.00;;;28.80;80.30;;;;;;5085240;28;20344;-79
2022/07/29 09:38:33;;;;;;;4.15;2.50;;;28.20;81.20;;;;;;5092872;28;20183;-78
2022/07/29 09:41:01;;;;;;;3.65;2.38;;;27.70;84.10;;;;;;5091653;28;20546;-78
2022/07/29 09:43:27;;;;;;;3.88;2.55;;;27.40;85.90;;;;;;5093044;28;20640;-78
2022/07/29 09:45:53;;;;;;;4.15;2.55;;;27.10;86.20;;;;;;5095425;28;20256;-78
2022/07/29 09:48:24;;;;;;;7.20;3.47;;;26.80;87.20;;;;;;5092665;28;20183;-78
2022/07/29 09:50:51;;;;;;;8.50;3.15;;;26.80;87.40;;;;;;5092629;28;20195;-78
2022/07/29 09:53:34;;;;;;;4.25;2.63;;;26.90;87.50;;;;;;5087174;28;20180;-78
2022/07/29 09:56:00;;;;;;;5.60;2.63;;;27.20;86.50;;;;;;5083862;28;20234;-79
2022/07/29 09:58:25;;;;;;;4.75;2.42;;;27.80;85.60;;;;;;5085241;28;20179;-78
2022/07/29 10:00:53;;;;;;;5.22;2.92;;;28.40;83.00;;;;;;5088484;28;20176;-78
2022/07/29 10:03:19;;;;;;;5.85;3.33;;;28.60;81.90;;;;;;5103889;28;20171;-78
2022/07/29 10:05:46;;;;;;;4.25;2.63;;;28.70;84.40;;;;;;5094494;28;20229;-78
2022/07/29 10:08:12;;;;;;;6.07;3.25;;;29.00;83.80;;;;;;5102435;28;20207;-79
2022/07/29 10:10:42;;;;;;;6.22;2.63;;;28.90;82.60;;;;;;5096989;28;20660;-79
2022/07/29 10:13:11;;;;;;;3.95;2.22;;;29.20;81.00;;;;;;5091140;28;20215;-78
2022/07/29 10:15:44;;;;;;;8.55;3.38;;;29.40;80.90;;;;;;5085291;28;20249;-79
2022/07/29 10:18:11;;;;;;;4.80;2.65;;;29.30;79.30;;;;;;5069530;28;20188;-78
2022/07/29 10:20:37;;;;;;;15.60;2.35;;;28.90;80.70;;;;;;5078281;28;20237;-79
2022/07/29 10:23:04;;;;;;;7.32;3.22;;;28.80;80.10;;;;;;5092338;28;20184;-78
2022/07/29 10:25:30;;;;;;;3.45;2.38;;;28.60;81.90;;;;;;5092329;28;20229;-78
2022/07/29 10:27:56;;;;;;;7.70;2.80;;;28.90;82.50;;;;;;5081030;28;20267;-78
2022/07/29 10:30:23;;;;;;;6.47;3.20;;;28.80;80.20;;;;;;5073297;28;20592;-78
2022/07/29 10:33:07;;;;;;;5.20;3.03;;;28.60;81.40;;;;;;5091849;28;20207;-78
2022/07/29 10:36:08;;;;;;;3.25;2.25;;;28.40;82.20;;;;;;5090514;28;20207;-78
2022/07/29 10:38:49;;;;;;;2.80;1.90;;;28.30;79.50;;;;;;5062713;28;20183;-79
2022/07/29 10:41:27;;;;;;;12.23;1.95;;;28.30;77.40;;;;;;5075260;28;20696;-78
2022/07/29 10:44:05;;;;;;;5.23;2.50;;;27.70;78.70;;;;;;5049729;28;20184;-78
2022/07/29 10:46:39;;;;;;;8.80;3.00;;;27.30;79.20;;;;;;5045672;28;20770;-78
2022/07/29 10:49:08;;;;;;;2.90;1.70;;;26.50;80.50;;;;;;5039312;28;20183;-78
2022/07/29 10:51:52;;;;;;;2.90;1.63;;;25.90;82.20;;;;;;5033485;28;20411;-78
2022/07/29 10:54:19;;;;;;;6.00;2.70;;;24.70;87.10;;;;;;5047905;28;20411;-78
2022/07/29 10:56:45;;;;;;;10.50;3.40;;;23.80;92.80;;;;;;5052917;28;20507;-75
2022/07/29 10:59:20;;;;;;;6.40;3.43;;;23.10;98.50;;;;;;5070127;28;20414;-75
2022/07/29 11:01:46;;;;;;;11.27;4.17;;;22.30;99.90;;;;;;5046973;28;20261;-76
2022/07/29 11:04:12;;;;;;;22.77;6.10;;;21.50;99.90;;;;;;5062162;28;20934;-75
2022/07/29 11:06:57;;;;;;;10.37;4.90;;;20.80;99.90;;;;;;5059287;28;20430;-76
2022/07/29 11:09:22;;;;;;;9.10;5.30;;;20.00;99.90;;;;;;5056728;28;20267;-75
2022/07/29 11:11:48;;;;;;;16.27;5.47;;;19.40;99.90;;;;;;5059781;28;20411;-75
2022/07/29 11:14:14;;;;;;;12.23;4.50;;;19.10;99.90;;;;;;5061164;28;20274;-75
2022/07/29 11:17:07;;;;;;;4.10;2.70;;;18.90;99.90;;;;;;5066996;28;20458;-78
2022/07/29 11:19:33;;;;;;;4.93;2.33;;;18.60;99.90;;;;;;5059005;28;20165;-75
2022/07/29 11:21:59;;;;;;;7.70;2.00;;;18.30;99.90;;;;;;5057900;28;20446;-75
2022/07/29 11:24:30;;;;;;;3.90;2.07;;;18.50;99.90;;;;;;5064924;28;20415;-76
2022/07/29 11:27:17;;;;;;;2.40;1.53;;;18.40;99.90;;;;;;5059744;28;20177;-75
2022/07/29 11:29:49;;;;;;;2.37;1.57;;;18.30;99.90;;;;;;5074594;28;20410;-76
2022/07/29 11:32:18;;;;;;;7.70;2.43;;;18.30;99.90;;;;;;5064144;28;20438;-76
2022/07/29 11:34:44;;;;;;;8.27;2.80;;;18.20;99.90;;;;;;5065444;28;20542;-75
2022/07/29 11:37:10;;;;;;;4.63;1.63;;;18.30;99.90;;;;;;5071348;28;20430;-75
2022/07/29 11:39:38;;;;;;;4.50;1.73;;;18.20;99.90;;;;;;5075020;28;20176;-75
2022/07/29 11:42:16;;;;;;;5.37;2.27;;;18.00;99.90;;;;;;5067496;28;20430;-76
2022/07/29 11:45:01;;;;;;;9.63;2.87;;;18.00;99.90;;;;;;5071386;28;21061;-75
2022/07/29 11:47:28;;;;;;;7.90;2.90;;;18.10;99.90;;;;;;5091572;28;20437;-76
2022/07/29 11:49:57;;;;;;;5.57;3.37;;;18.20;99.90;;;;;;5095272;28;20447;-76
2022/07/29 11:52:23;;;;;;;8.50;4.20;;;18.30;99.90;;;;;;5075450;28;20414;-76
2022/07/29 11:54:50;;;;;;;6.50;3.80;;;18.30;99.90;;;;;;5095197;28;20553;-76
2022/07/29 11:57:17;;;;;;;9.97;4.53;;;18.30;99.90;;;;;;5095396;28;20457;-76
2022/07/29 11:59:45;;;;;;;5.83;3.17;;;18.30;99.90;;;;;;5100411;28;20445;-76
2022/07/29 12:02:13;;;;;;;9.47;3.87;;;18.30;99.90;;;;;;5087191;28;20414;-76
2022/07/29 12:04:58;;;;;;;6.30;4.00;;;18.40;99.90;;;;;;5089565;28;20417;-76
2022/07/29 12:07:33;;;;;;;6.27;3.53;;;18.50;99.90;;;;;;5089275;28;20433;-76
2022/07/29 12:09:59;;;;;;;6.93;3.73;;;18.60;99.90;;;;;;5094501;28;20444;-76
2022/07/29 12:12:25;;;;;;;4.37;2.50;;;18.60;99.90;;;;;;5093928;28;20418;-76
2022/07/29 12:14:50;;;;;;;6.13;2.47;;;18.70;99.90;;;;;;5094660;28;20453;-77
2022/07/29 12:17:31;;;;;;;13.00;3.50;;;18.80;99.90;;;;;;5094185;28;20176;-76
2022/07/29 12:19:59;;;;;;;4.30;3.00;;;18.90;99.90;;;;;;5095537;28;20187;-76
2022/07/29 12:22:40;;;;;;;6.57;3.80;;;19.10;99.90;;;;;;5091047;28;20445;-76
2022/07/29 12:25:14;;;;;;;4.70;3.53;;;19.20;99.90;;;;;;5082949;28;20556;-76
2022/07/29 12:27:39;;;;;;;5.03;3.10;;;19.60;99.90;;;;;;5095165;28;20736;-77
2022/07/29 12:30:10;;;;;;;6.10;2.87;;;19.60;99.90;;;;;;5093943;28;20510;-78
2022/07/29 12:32:36;;;;;;;4.73;3.43;;;19.80;99.90;;;;;;5094333;28;20196;-76
2022/07/29 12:35:07;;;;;;;4.80;3.30;;;19.90;99.90;;;;;;5095146;28;20454;-76
2022/07/29 12:37:38;;;;;;;5.50;3.80;;;20.00;99.90;;;;;;5095496;28;20164;-76
2022/07/29 12:40:06;;;;;;;11.50;3.37;;;20.10;99.90;;;;;;5094566;28;20418;-77
2022/07/29 12:42:32;;;;;;;4.90;3.57;;;20.20;99.90;;;;;;5092698;28;20475;-77
2022/07/29 12:44:58;;;;;;;6.93;3.47;;;20.10;99.90;;;;;;5093980;28;20758;-77
2022/07/29 12:47:23;;;;;;;5.63;3.67;;;20.00;99.90;;;;;;5102157;28;20422;-77
2022/07/29 12:49:50;;;;;;;8.93;3.10;;;19.90;99.90;;;;;;5106959;28;20187;-77
2022/07/29 12:52:35;;;;;;;6.80;4.20;;;19.90;99.90;;;;;;5092135;28;20317;-77
2022/07/29 12:55:01;;;;;;;11.43;4.83;;;19.80;99.90;;;;;;5093455;28;20533;-76